KJFK/JFK METAR and TAF weather

Enter ICAO airport designator
Station Type Date Time Source
KJFK METAR 2019/08/21 02:51 UTC NOAA

KJFK 210251Z 16004KT 10SM BKN250 24/23 A3005 RMK AO2 SLP175 T02440228 50002


Station Type Date Time Source
KJFK Decoded METAR 2019/08/21 02:51 UTC NOAA

Station name not available
Aug 20, 2019 - 10:51 PM EDT / 2019.08.21 0251 UTC
Wind: from the SSE (160 degrees) at 5 MPH (4 KT):0
Visibility: 10 mile(s):0
Sky conditions: mostly cloudy
Temperature: 75.9 F (24.4 C)
Dew Point: 73.0 F (22.8 C)
Relative Humidity: 90%
Pressure (altimeter): 30.05 in. Hg (1017 hPa)
Pressure tendency: 0.01 inches (0.2 hPa) higher than three hours ago
ob: KJFK 210251Z 16004KT 10SM BKN250 24/23 A3005 RMK AO2 SLP175 T02440228 50002
cycle: 3

Station Type Date Time Source
KJFK TAF 2019/08/21 03:42 UTC NOAA

TAF
AMD KJFK 210238Z 2103/2206 17007KT P6SM FEW050 SCT150 BKN250
FM210700 17006KT P6SM VCSH FEW025 SCT050 BKN120
FM211300 19010KT P6SM SCT020 BKN050
FM211900 19016KT P6SM SCT020 BKN050 BKN100 PROB30 2119/2202 5SM -TSRA SCT020 BKN040CB
FM220200 22012KT P6SM FEW030 BKN050

Example: see airport list